Air Navigation Services of Czech Republic
Airport: LKLN Updated:  01.04.2020 00:25:28  UTC
 METAR LKLN 01.04. 00:30 ...
METAR LKLN 010030Z AUTO 00000KT CAVOK M05/M08 Q1025=